Time;durP1;ratioP1;P1;durP2;ratioP2;P2;SDS_P1;SDS_P2;PMS_P1;PMS_P2;Temp;Humidity;BMP_temperature;BMP_pressure;BME280_temperature;BME280_humidity;BME280_pressure;Samples;Min_cycle;Max_cycle;Signal;HPM_P1;HPM_P2
2021/08/21 00:01:19;;;;;;;6.95;5.72;;;14.40;99.90;;;;;;5000289;28;20034;-76
2021/08/21 00:03:45;;;;;;;7.38;6.03;;;14.50;99.90;;;;;;4993875;28;20026;-75
2021/08/21 00:06:10;;;;;;;7.25;6.10;;;14.50;99.90;;;;;;4991668;28;20026;-76
2021/08/21 00:08:36;;;;;;;7.38;5.72;;;14.60;99.90;;;;;;5012487;28;20046;-76
2021/08/21 00:11:03;;;;;;;8.07;5.97;;;14.70;99.90;;;;;;5004128;28;20058;-77
2021/08/21 00:13:28;;;;;;;7.93;5.90;;;14.80;99.90;;;;;;5007235;28;20429;-77
2021/08/21 00:15:54;;;;;;;8.90;6.03;;;14.90;99.90;;;;;;4993332;28;20049;-77
2021/08/21 00:18:20;;;;;;;8.52;6.95;;;14.70;99.90;;;;;;5005224;28;20030;-76
2021/08/21 00:20:46;;;;;;;7.50;6.72;;;14.70;99.90;;;;;;4991620;28;20029;-76
2021/08/21 00:23:11;;;;;;;8.02;6.97;;;14.60;99.90;;;;;;5001265;28;20035;-77
2021/08/21 00:25:37;;;;;;;12.75;6.68;;;14.60;99.90;;;;;;4996300;28;20025;-77
2021/08/21 00:28:02;;;;;;;8.25;6.97;;;14.60;99.90;;;;;;4998089;28;20638;-75
2021/08/21 00:30:28;;;;;;;9.63;7.05;;;14.70;99.90;;;;;;4999047;28;20034;-76
2021/08/21 00:32:54;;;;;;;9.25;6.75;;;14.40;99.90;;;;;;4999213;28;20037;-77
2021/08/21 00:35:19;;;;;;;9.60;7.72;;;14.30;99.90;;;;;;4999784;28;20056;-77
2021/08/21 00:37:45;;;;;;;10.80;7.05;;;14.00;99.90;;;;;;5006041;28;20436;-76
2021/08/21 00:40:11;;;;;;;8.63;6.75;;;14.00;99.90;;;;;;5002943;28;20458;-77
2021/08/21 00:42:37;;;;;;;9.77;7.25;;;14.00;99.90;;;;;;4998829;28;20035;-76
2021/08/21 00:45:04;;;;;;;8.32;6.80;;;13.90;99.90;;;;;;4999752;28;20072;-77
2021/08/21 00:47:30;;;;;;;7.47;6.38;;;13.80;99.90;;;;;;5004393;28;20026;-76
2021/08/21 00:49:56;;;;;;;10.85;7.43;;;13.90;99.90;;;;;;5006002;28;20071;-77
2021/08/21 00:52:26;;;;;;;10.60;7.82;;;13.80;99.90;;;;;;5007824;28;20023;-76
2021/08/21 00:54:54;;;;;;;9.35;8.02;;;13.30;99.90;;;;;;4993318;28;20022;-75
2021/08/21 00:57:20;;;;;;;11.20;7.70;;;12.80;99.90;;;;;;4991861;28;20030;-77
2021/08/21 00:59:48;;;;;;;9.68;7.35;;;13.10;99.90;;;;;;4992877;28;20029;-77
2021/08/21 01:02:15;;;;;;;8.23;7.00;;;13.40;99.90;;;;;;4992992;28;20081;-77
2021/08/21 01:04:51;;;;;;;9.60;7.25;;;13.40;99.90;;;;;;5005092;28;20018;-76
2021/08/21 01:07:18;;;;;;;8.32;7.10;;;13.30;99.90;;;;;;4973093;28;20027;-76
2021/08/21 01:09:44;;;;;;;7.63;6.82;;;13.40;99.90;;;;;;4989748;28;20485;-77
2021/08/21 01:12:12;;;;;;;9.77;7.30;;;13.60;99.90;;;;;;4992443;28;20038;-76
2021/08/21 01:14:38;;;;;;;9.10;7.40;;;13.70;99.90;;;;;;4996083;28;20033;-76
2021/08/21 01:17:07;;;;;;;10.93;7.38;;;13.60;99.90;;;;;;5003600;28;20504;-77
2021/08/21 01:19:38;;;;;;;8.15;6.90;;;13.60;99.90;;;;;;5015145;28;20053;-76
2021/08/21 01:22:09;;;;;;;8.85;6.97;;;13.70;99.90;;;;;;5008269;28;20022;-77
2021/08/21 01:24:36;;;;;;;7.90;6.40;;;13.60;99.90;;;;;;4999138;28;20080;-77
2021/08/21 01:27:02;;;;;;;8.27;6.60;;;13.60;99.90;;;;;;4999355;28;20026;-76
2021/08/21 01:29:29;;;;;;;8.35;6.50;;;13.60;99.90;;;;;;4997165;28;20054;-77
2021/08/21 01:31:55;;;;;;;9.35;6.78;;;13.70;99.90;;;;;;4997506;28;20038;-77
2021/08/21 01:34:21;;;;;;;8.80;7.60;;;13.70;99.90;;;;;;5013718;28;20030;-77
2021/08/21 01:36:49;;;;;;;10.25;8.27;;;13.40;99.90;;;;;;5007427;28;20031;-77
2021/08/21 01:39:16;;;;;;;9.55;8.18;;;12.70;99.90;;;;;;5007233;28;20105;-77
2021/08/21 01:41:43;;;;;;;12.38;8.68;;;12.40;99.90;;;;;;4988829;28;20022;-76
2021/08/21 01:44:17;;;;;;;8.15;7.28;;;12.20;99.90;;;;;;5000435;28;20026;-77
2021/08/21 01:46:47;;;;;;;9.45;7.72;;;12.40;99.90;;;;;;5003645;28;20092;-77
2021/08/21 01:49:14;;;;;;;8.80;7.85;;;12.50;99.90;;;;;;5008917;28;20386;-77
2021/08/21 01:51:42;;;;;;;10.75;6.88;;;12.70;99.90;;;;;;5007474;28;20037;-78
2021/08/21 01:54:16;;;;;;;8.02;6.38;;;12.80;99.90;;;;;;5001611;28;20041;-77
2021/08/21 01:56:53;;;;;;;8.02;6.82;;;12.90;99.90;;;;;;4996191;28;20030;-77
2021/08/21 01:59:33;;;;;;;7.72;6.20;;;12.90;99.90;;;;;;5012861;28;20018;-77
2021/08/21 02:01:59;;;;;;;9.05;6.25;;;13.00;99.90;;;;;;5002126;28;20032;-76
2021/08/21 02:04:26;;;;;;;8.20;5.97;;;13.00;99.90;;;;;;5004904;28;20030;-76
2021/08/21 02:06:52;;;;;;;6.68;6.07;;;13.10;99.90;;;;;;5008681;28;20449;-76
2021/08/21 02:09:20;;;;;;;8.35;6.30;;;13.10;99.90;;;;;;4995560;28;20069;-77
2021/08/21 02:11:47;;;;;;;10.65;6.82;;;13.10;99.90;;;;;;4995101;28;20026;-76
2021/08/21 02:14:13;;;;;;;7.45;6.60;;;13.30;99.90;;;;;;5001531;28;20026;-76
2021/08/21 02:16:40;;;;;;;9.50;7.50;;;13.40;99.90;;;;;;4993667;28;20022;-76
2021/08/21 02:19:05;;;;;;;8.02;7.20;;;13.30;99.90;;;;;;4994614;28;20023;-74
2021/08/21 02:21:31;;;;;;;8.40;6.38;;;12.70;99.90;;;;;;5008257;28;20032;-74
2021/08/21 02:23:58;;;;;;;8.60;7.15;;;13.00;99.90;;;;;;5002928;28;20409;-75
2021/08/21 02:26:24;;;;;;;7.60;6.72;;;13.00;99.90;;;;;;5007769;28;20033;-74
2021/08/21 02:28:50;;;;;;;8.43;6.75;;;13.20;99.90;;;;;;5006958;28;20275;-74
2021/08/21 02:31:16;;;;;;;7.65;6.70;;;13.40;99.90;;;;;;4993527;28;20030;-75
2021/08/21 02:33:41;;;;;;;8.05;7.25;;;13.50;99.90;;;;;;5002896;28;20023;-75
2021/08/21 02:36:07;;;;;;;9.10;7.15;;;13.80;99.90;;;;;;5007019;28;20104;-75
2021/08/21 02:38:33;;;;;;;10.50;7.28;;;13.50;99.90;;;;;;5005736;28;20476;-76
2021/08/21 02:40:59;;;;;;;8.23;7.43;;;13.40;99.90;;;;;;4999840;28;20080;-76
2021/08/21 02:43:24;;;;;;;9.77;8.55;;;13.40;99.90;;;;;;5003224;28;20069;-74
2021/08/21 02:45:50;;;;;;;10.60;8.43;;;13.30;99.90;;;;;;5002129;28;20030;-74
2021/08/21 02:48:15;;;;;;;9.48;7.57;;;13.20;99.90;;;;;;4991557;28;20037;-75
2021/08/21 02:50:41;;;;;;;12.05;8.63;;;13.30;99.90;;;;;;5018015;28;20121;-75
2021/08/21 02:53:07;;;;;;;7.90;7.10;;;13.00;99.90;;;;;;4995984;28;20601;-76
2021/08/21 02:55:33;;;;;;;9.07;8.05;;;12.90;99.90;;;;;;4999613;28;20025;-75
2021/08/21 02:57:58;;;;;;;9.93;8.70;;;12.90;99.90;;;;;;5003162;28;20030;-75
2021/08/21 03:00:24;;;;;;;10.93;8.63;;;12.40;99.90;;;;;;5007472;28;20130;-75
2021/08/21 03:02:50;;;;;;;9.05;7.75;;;12.10;99.90;;;;;;4986115;28;20097;-75
2021/08/21 03:05:16;;;;;;;6.70;5.88;;;12.10;99.90;;;;;;5005017;28;20030;-75
2021/08/21 03:07:41;;;;;;;8.90;6.95;;;12.40;99.90;;;;;;5003963;28;20022;-75
2021/08/21 03:10:07;;;;;;;11.07;6.88;;;12.60;99.90;;;;;;5007738;28;20022;-74
2021/08/21 03:12:33;;;;;;;7.30;6.60;;;12.50;99.90;;;;;;5005016;28;20404;-75
2021/08/21 03:14:59;;;;;;;7.45;6.20;;;12.60;99.90;;;;;;4983894;28;20027;-74
2021/08/21 03:17:25;;;;;;;10.05;6.82;;;12.80;99.90;;;;;;4996766;28;20034;-74
2021/08/21 03:19:51;;;;;;;7.50;6.47;;;12.70;99.90;;;;;;5000347;28;20029;-75
2021/08/21 03:22:16;;;;;;;7.13;6.05;;;12.50;99.90;;;;;;5002269;28;20031;-75
2021/08/21 03:24:42;;;;;;;7.82;6.43;;;12.60;99.90;;;;;;5006834;28;20037;-75
2021/08/21 03:27:08;;;;;;;9.57;7.07;;;12.60;99.90;;;;;;5004812;28;20022;-75
2021/08/21 03:29:34;;;;;;;8.48;6.60;;;12.30;99.90;;;;;;5000143;28;20776;-76
2021/08/21 03:31:59;;;;;;;8.07;7.28;;;12.30;99.90;;;;;;5011230;28;20045;-76
2021/08/21 03:34:25;;;;;;;7.78;6.95;;;12.40;99.90;;;;;;5006586;28;20030;-76
2021/08/21 03:36:54;;;;;;;12.23;7.00;;;12.40;99.90;;;;;;5003820;28;20037;-76
2021/08/21 03:39:20;;;;;;;8.57;7.50;;;12.40;99.90;;;;;;4999574;28;20091;-76
2021/08/21 03:41:46;;;;;;;7.90;6.55;;;12.50;99.90;;;;;;5001291;28;20401;-76
2021/08/21 03:44:12;;;;;;;9.85;6.57;;;12.50;99.90;;;;;;5011720;28;20691;-76
2021/08/21 03:46:38;;;;;;;8.73;6.70;;;12.50;99.90;;;;;;5001302;28;20030;-76
2021/08/21 03:49:03;;;;;;;11.85;7.95;;;12.50;99.90;;;;;;5006934;28;20061;-76
2021/08/21 03:51:29;;;;;;;11.90;8.70;;;12.30;99.90;;;;;;5004335;28;20046;-74
2021/08/21 03:53:55;;;;;;;9.57;7.47;;;11.80;99.90;;;;;;4999626;28;20025;-75
2021/08/21 03:56:21;;;;;;;9.68;8.27;;;11.70;99.90;;;;;;5001710;28;20077;-75
2021/08/21 03:58:46;;;;;;;7.75;6.47;;;11.80;99.90;;;;;;5006215;28;20469;-76
2021/08/21 04:01:12;;;;;;;7.60;6.80;;;11.90;99.90;;;;;;5004027;28;20022;-74
2021/08/21 04:03:37;;;;;;;9.38;7.00;;;12.10;99.90;;;;;;4995866;28;20086;-74
2021/08/21 04:06:03;;;;;;;8.57;6.25;;;12.20;99.90;;;;;;4993207;28;20041;-74
2021/08/21 04:08:28;;;;;;;8.95;7.45;;;12.30;99.90;;;;;;5008426;28;20018;-77
2021/08/21 04:10:54;;;;;;;8.43;6.53;;;12.50;99.90;;;;;;5000668;28;20062;-76
2021/08/21 04:13:19;;;;;;;8.82;7.43;;;12.50;99.90;;;;;;4997034;28;20484;-76
2021/08/21 04:15:45;;;;;;;8.10;7.30;;;12.60;99.90;;;;;;4995165;28;20026;-75
2021/08/21 04:18:10;;;;;;;8.80;7.75;;;12.70;99.90;;;;;;4991612;28;20042;-75
2021/08/21 04:20:36;;;;;;;7.88;6.65;;;12.10;99.90;;;;;;4992967;28;20069;-75
2021/08/21 04:23:01;;;;;;;9.20;7.32;;;12.40;99.90;;;;;;4990894;28;20023;-74
2021/08/21 04:25:27;;;;;;;7.22;6.53;;;12.20;99.90;;;;;;4992569;28;20492;-75
2021/08/21 04:27:53;;;;;;;9.30;8.00;;;12.30;99.90;;;;;;4995248;28;20037;-75
2021/08/21 04:30:19;;;;;;;8.35;7.30;;;12.30;99.90;;;;;;4992717;28;20073;-75
2021/08/21 04:32:45;;;;;;;8.45;7.25;;;12.40;99.90;;;;;;4991341;28;20030;-75
2021/08/21 04:35:11;;;;;;;7.90;7.10;;;12.50;99.90;;;;;;5002144;28;20033;-75
2021/08/21 04:37:37;;;;;;;8.18;7.35;;;12.50;99.90;;;;;;4998018;28;20022;-74
2021/08/21 04:40:05;;;;;;;9.13;7.70;;;12.30;99.90;;;;;;5000838;28;20045;-75
2021/08/21 04:42:30;;;;;;;10.07;8.27;;;12.30;99.90;;;;;;4996390;28;20025;-75
2021/08/21 04:44:59;;;;;;;7.75;7.00;;;11.90;99.90;;;;;;5010593;28;20022;-74
2021/08/21 04:47:28;;;;;;;7.88;7.07;;;11.80;99.90;;;;;;5007734;28;20169;-75
2021/08/21 04:49:56;;;;;;;8.80;7.40;;;12.10;99.90;;;;;;5004194;28;20041;-75
2021/08/21 04:52:23;;;;;;;9.32;7.25;;;12.20;99.90;;;;;;4999869;28;20030;-75
2021/08/21 04:54:50;;;;;;;8.82;7.63;;;12.30;99.90;;;;;;5000171;28;20026;-74
2021/08/21 04:57:16;;;;;;;9.23;7.50;;;12.50;99.90;;;;;;5005673;28;20162;-74
2021/08/21 04:59:42;;;;;;;11.25;8.38;;;12.70;99.90;;;;;;4993288;28;20105;-74
2021/08/21 05:02:08;;;;;;;11.35;8.48;;;12.20;99.90;;;;;;4993731;28;20058;-75
2021/08/21 05:04:33;;;;;;;10.90;8.73;;;12.50;99.90;;;;;;5004927;28;20065;-75
2021/08/21 05:06:59;;;;;;;11.55;9.70;;;12.30;99.90;;;;;;4996050;28;20026;-74
2021/08/21 05:09:25;;;;;;;10.65;9.13;;;11.90;99.90;;;;;;5000653;28;20042;-77
2021/08/21 05:11:51;;;;;;;9.80;8.35;;;11.80;99.90;;;;;;4995848;28;20077;-76
2021/08/21 05:14:16;;;;;;;8.60;7.72;;;12.10;99.90;;;;;;4992257;28;20026;-76
2021/08/21 05:16:45;;;;;;;10.20;7.38;;;12.40;99.90;;;;;;4992504;28;20035;-75
2021/08/21 05:19:23;;;;;;;8.10;7.07;;;12.60;99.90;;;;;;5004767;28;20022;-74
2021/08/21 05:21:51;;;;;;;9.00;6.90;;;12.90;99.90;;;;;;4971685;28;20019;-74
2021/08/21 05:24:17;;;;;;;9.27;6.65;;;13.10;99.90;;;;;;4999293;28;20026;-74
2021/08/21 05:26:44;;;;;;;9.15;8.02;;;13.20;99.90;;;;;;4993495;28;20026;-74
2021/08/21 05:29:12;;;;;;;10.95;8.40;;;13.20;99.90;;;;;;5005558;28;20022;-74
2021/08/21 05:31:38;;;;;;;10.02;8.65;;;12.90;99.90;;;;;;5003885;28;20030;-74
2021/08/21 05:34:03;;;;;;;9.98;7.70;;;12.90;99.90;;;;;;5005598;28;20029;-73
2021/08/21 05:36:29;;;;;;;8.80;7.90;;;13.00;99.90;;;;;;5000088;28;20049;-73
2021/08/21 05:38:55;;;;;;;9.05;7.50;;;13.70;99.90;;;;;;4997745;28;20034;-74
2021/08/21 05:41:20;;;;;;;9.55;7.63;;;13.60;99.90;;;;;;5004672;28;20042;-74
2021/08/21 05:43:46;;;;;;;7.85;6.90;;;13.80;99.90;;;;;;5005682;28;20465;-73
2021/08/21 05:46:11;;;;;;;10.80;7.80;;;13.90;99.90;;;;;;4999814;28;20038;-74
2021/08/21 05:48:37;;;;;;;11.60;8.32;;;14.00;99.90;;;;;;5011008;28;20046;-74
2021/08/21 05:51:03;;;;;;;8.45;7.65;;;14.30;99.90;;;;;;4999918;28;20486;-74
2021/08/21 05:53:28;;;;;;;8.35;6.93;;;14.20;99.90;;;;;;5011833;28;20036;-73
2021/08/21 05:55:54;;;;;;;8.38;7.43;;;14.30;99.90;;;;;;5000273;28;20065;-73
2021/08/21 05:58:19;;;;;;;9.55;8.50;;;14.40;99.90;;;;;;4992116;28;20059;-73
2021/08/21 06:00:45;;;;;;;10.15;8.18;;;14.40;99.90;;;;;;4996690;28;20597;-73
2021/08/21 06:03:11;;;;;;;10.40;8.75;;;14.30;99.90;;;;;;4994958;28;20030;-73
2021/08/21 06:05:41;;;;;;;10.63;8.88;;;14.10;99.90;;;;;;5002150;28;20025;-73
2021/08/21 06:08:06;;;;;;;10.68;9.13;;;14.20;99.90;;;;;;5013832;28;20030;-76
2021/08/21 06:10:32;;;;;;;9.60;8.25;;;14.30;99.90;;;;;;4999568;28;20027;-73
2021/08/21 06:12:57;;;;;;;10.45;8.43;;;14.20;99.90;;;;;;4995140;28;20041;-73
2021/08/21 06:15:23;;;;;;;9.18;8.27;;;14.40;99.90;;;;;;4994688;28;20045;-73
2021/08/21 06:17:49;;;;;;;10.02;7.93;;;14.50;99.90;;;;;;4993718;28;20023;-73
2021/08/21 06:20:14;;;;;;;7.97;7.18;;;14.70;99.90;;;;;;4994922;28;20026;-73
2021/08/21 06:22:40;;;;;;;8.65;7.43;;;14.80;99.90;;;;;;4994868;28;20022;-73
2021/08/21 06:25:08;;;;;;;9.82;7.43;;;15.00;99.90;;;;;;4994712;28;20031;-73
2021/08/21 06:27:34;;;;;;;8.98;7.30;;;15.00;99.90;;;;;;4995047;28;20030;-73
2021/08/21 06:30:00;;;;;;;8.00;6.80;;;15.20;99.90;;;;;;4993509;28;20030;-73
2021/08/21 06:32:25;;;;;;;9.73;5.95;;;15.50;99.90;;;;;;4994595;28;20056;-73
2021/08/21 06:34:51;;;;;;;10.43;6.95;;;15.60;99.90;;;;;;4994520;28;20127;-72
2021/08/21 06:37:16;;;;;;;8.13;6.63;;;15.80;99.90;;;;;;4994501;28;20030;-73
2021/08/21 06:39:42;;;;;;;7.80;6.53;;;15.70;99.90;;;;;;4994716;28;20023;-73
2021/08/21 06:42:07;;;;;;;9.80;6.55;;;15.90;99.90;;;;;;4994436;28;20089;-72
2021/08/21 06:44:33;;;;;;;9.73;6.40;;;15.80;99.90;;;;;;4991545;28;20109;-72
2021/08/21 06:46:58;;;;;;;7.43;6.65;;;15.70;99.90;;;;;;4994358;28;20026;-72
2021/08/21 06:49:25;;;;;;;7.32;6.43;;;15.90;99.90;;;;;;4994210;28;20030;-72
2021/08/21 06:51:50;;;;;;;7.68;6.88;;;15.80;99.90;;;;;;4994295;28;20034;-72
2021/08/21 06:54:16;;;;;;;9.13;7.25;;;15.90;99.90;;;;;;4994120;28;20122;-72
2021/08/21 06:56:41;;;;;;;7.35;6.47;;;15.90;99.90;;;;;;4993983;28;20065;-72
2021/08/21 06:59:07;;;;;;;7.18;6.32;;;16.00;99.90;;;;;;4994420;28;20022;-72
2021/08/21 07:01:32;;;;;;;9.57;6.50;;;16.10;99.90;;;;;;4992838;28;20025;-72
2021/08/21 07:03:58;;;;;;;7.75;6.05;;;16.20;99.90;;;;;;4994141;28;20026;-72
2021/08/21 07:06:24;;;;;;;9.40;6.95;;;16.40;99.90;;;;;;5006613;28;20033;-72
2021/08/21 07:08:49;;;;;;;9.27;6.70;;;16.40;99.90;;;;;;5007791;28;20035;-72
2021/08/21 07:11:15;;;;;;;9.05;5.78;;;16.40;99.90;;;;;;5005850;28;20493;-73
2021/08/21 07:13:40;;;;;;;9.23;6.50;;;16.50;99.90;;;;;;5000140;28;20100;-73
2021/08/21 07:16:06;;;;;;;6.20;5.60;;;16.40;99.90;;;;;;4993337;28;20524;-74
2021/08/21 07:18:31;;;;;;;9.68;6.22;;;16.50;99.90;;;;;;4993640;28;20026;-73
2021/08/21 07:20:57;;;;;;;7.38;5.88;;;16.60;99.90;;;;;;4993883;28;20030;-73
2021/08/21 07:23:23;;;;;;;8.00;6.45;;;16.70;99.90;;;;;;4993620;28;20030;-73
2021/08/21 07:25:48;;;;;;;9.00;6.55;;;16.70;99.90;;;;;;5000118;28;20034;-73
2021/08/21 07:28:14;;;;;;;7.25;6.55;;;16.70;99.90;;;;;;4992080;28;20037;-73
2021/08/21 07:30:39;;;;;;;8.13;6.72;;;16.80;99.90;;;;;;4993435;28;20489;-73
2021/08/21 07:33:05;;;;;;;9.10;6.20;;;16.90;99.90;;;;;;4995921;28;20031;-73
2021/08/21 07:35:30;;;;;;;8.65;6.40;;;17.20;99.90;;;;;;4993339;28;20034;-73
2021/08/21 07:37:56;;;;;;;8.13;6.63;;;17.40;99.90;;;;;;4993431;28;20034;-74
2021/08/21 07:40:22;;;;;;;9.38;6.55;;;17.50;99.90;;;;;;4995146;28;20489;-73
2021/08/21 07:42:47;;;;;;;7.28;6.30;;;17.60;99.90;;;;;;4993293;28;20024;-74
2021/08/21 07:45:13;;;;;;;9.13;7.72;;;17.50;99.90;;;;;;4988703;28;20385;-73
2021/08/21 07:47:39;;;;;;;8.43;6.20;;;17.30;99.90;;;;;;4995378;28;20041;-73
2021/08/21 07:50:05;;;;;;;9.15;6.35;;;17.40;99.90;;;;;;5007783;28;20121;-74
2021/08/21 07:52:31;;;;;;;7.43;5.70;;;17.30;99.90;;;;;;4995572;28;20086;-73
2021/08/21 07:54:56;;;;;;;6.95;6.05;;;17.60;99.90;;;;;;4994858;28;20500;-74
2021/08/21 07:57:22;;;;;;;6.45;5.47;;;17.70;99.90;;;;;;4992149;28;20051;-73
2021/08/21 07:59:47;;;;;;;6.45;5.85;;;17.80;99.90;;;;;;4993061;28;20014;-74
2021/08/21 08:02:13;;;;;;;7.18;5.75;;;17.80;99.90;;;;;;5005921;28;20477;-75
2021/08/21 08:04:39;;;;;;;7.05;5.25;;;18.00;99.90;;;;;;4993004;28;20057;-75
2021/08/21 08:07:04;;;;;;;9.35;5.93;;;18.00;99.90;;;;;;5006126;28;20097;-75
2021/08/21 08:09:30;;;;;;;7.68;6.10;;;18.20;99.90;;;;;;5005022;28;20066;-75
2021/08/21 08:11:57;;;;;;;7.35;5.72;;;18.40;99.90;;;;;;4999318;28;20093;-75
2021/08/21 08:14:22;;;;;;;8.48;5.75;;;18.50;99.90;;;;;;5000190;28;20049;-75
2021/08/21 08:16:48;;;;;;;6.57;5.80;;;18.70;99.90;;;;;;4998898;28;20072;-76
2021/08/21 08:19:13;;;;;;;7.53;5.20;;;18.70;99.90;;;;;;4998354;28;20508;-74
2021/08/21 08:21:39;;;;;;;5.47;4.97;;;18.80;99.90;;;;;;5005668;28;20416;-74
2021/08/21 08:24:04;;;;;;;7.53;5.72;;;18.90;99.90;;;;;;5004177;28;20014;-75
2021/08/21 08:26:30;;;;;;;8.15;6.00;;;19.00;99.90;;;;;;4999007;28;20034;-76
2021/08/21 08:28:55;;;;;;;6.18;5.25;;;19.00;99.90;;;;;;4999813;28;20022;-75
2021/08/21 08:31:21;;;;;;;6.13;5.53;;;19.20;99.90;;;;;;5005786;28;20033;-75
2021/08/21 08:33:47;;;;;;;5.95;5.35;;;19.20;99.90;;;;;;5004998;28;20386;-75
2021/08/21 08:36:12;;;;;;;7.97;5.63;;;19.30;99.90;;;;;;4991740;28;20037;-74
2021/08/21 08:38:37;;;;;;;5.68;5.15;;;19.50;99.90;;;;;;5004605;28;20115;-74
2021/08/21 08:41:05;;;;;;;6.03;5.10;;;19.60;99.90;;;;;;4998737;28;20477;-74
2021/08/21 08:43:31;;;;;;;5.55;5.05;;;19.70;99.90;;;;;;4996962;28;20079;-74
2021/08/21 08:45:57;;;;;;;6.43;5.80;;;19.90;99.90;;;;;;5003504;28;20114;-77
2021/08/21 08:48:23;;;;;;;5.57;4.93;;;19.80;99.90;;;;;;5002735;28;20089;-75
2021/08/21 08:50:48;;;;;;;6.13;5.53;;;20.00;99.90;;;;;;4997143;28;20034;-75
2021/08/21 08:53:14;;;;;;;10.55;5.35;;;20.00;99.90;;;;;;5000311;28;20109;-74
2021/08/21 08:55:40;;;;;;;6.20;5.15;;;20.00;99.90;;;;;;5005125;28;20026;-75
2021/08/21 08:58:06;;;;;;;5.78;5.22;;;20.30;99.90;;;;;;5003890;28;20415;-75
2021/08/21 09:00:32;;;;;;;5.70;5.20;;;20.40;99.90;;;;;;4998762;28;20472;-76
2021/08/21 09:02:59;;;;;;;5.50;5.00;;;20.50;99.90;;;;;;5000097;28;20042;-75
2021/08/21 09:05:28;;;;;;;7.95;5.05;;;20.80;99.90;;;;;;5005217;28;20027;-75
2021/08/21 09:07:57;;;;;;;6.03;4.72;;;20.60;99.90;;;;;;5004704;28;20022;-76
2021/08/21 09:10:28;;;;;;;5.70;4.93;;;20.60;99.90;;;;;;4984172;28;20030;-73
2021/08/21 09:13:14;;;;;;;6.80;4.25;;;20.60;99.90;;;;;;4990780;28;20504;-73
2021/08/21 09:15:42;;;;;;;5.35;4.40;;;20.70;99.90;;;;;;4991275;28;20478;-73
2021/08/21 09:18:11;;;;;;;5.88;4.38;;;20.70;99.90;;;;;;4992062;28;20092;-73
2021/08/21 09:20:49;;;;;;;8.70;5.03;;;21.10;99.90;;;;;;4992133;28;20397;-74
2021/08/21 09:23:36;;;;;;;5.45;4.20;;;21.20;99.90;;;;;;4996014;28;20042;-73
2021/08/21 09:26:04;;;;;;;5.47;3.47;;;21.30;99.90;;;;;;4991971;28;20031;-73
2021/08/21 09:28:30;;;;;;;7.32;4.38;;;21.20;99.90;;;;;;4992049;28;20053;-73
2021/08/21 09:31:09;;;;;;;5.65;3.72;;;21.30;99.90;;;;;;5007283;28;20033;-74
2021/08/21 09:33:49;;;;;;;4.30;3.80;;;21.50;99.90;;;;;;4999439;28;20038;-73
2021/08/21 09:36:41;;;;;;;4.82;3.53;;;21.70;99.90;;;;;;4995265;28;20062;-73
2021/08/21 09:39:12;;;;;;;3.92;3.42;;;22.00;99.90;;;;;;4995670;28;20412;-73
2021/08/21 09:41:56;;;;;;;4.32;3.20;;;22.30;99.90;;;;;;4994488;28;20385;-73
2021/08/21 09:44:26;;;;;;;4.47;3.45;;;22.50;99.90;;;;;;4995247;28;20032;-73
2021/08/21 09:47:24;;;;;;;5.20;3.35;;;22.20;99.90;;;;;;4994019;28;20030;-73
2021/08/21 09:49:51;;;;;;;4.75;3.28;;;22.50;99.90;;;;;;4986556;28;20386;-73
2021/08/21 09:52:17;;;;;;;3.70;2.72;;;22.50;99.90;;;;;;4995382;28;20485;-73
2021/08/21 09:54:59;;;;;;;3.67;3.10;;;22.50;99.90;;;;;;4994626;28;20041;-73
2021/08/21 09:57:25;;;;;;;3.45;3.15;;;22.80;99.90;;;;;;4994726;28;20034;-73
2021/08/21 09:59:57;;;;;;;3.33;2.95;;;22.80;99.90;;;;;;4995220;28;20023;-73
2021/08/21 10:02:24;;;;;;;3.33;3.03;;;23.00;99.90;;;;;;4994726;28;20096;-73
2021/08/21 10:04:49;;;;;;;5.53;2.90;;;23.00;99.90;;;;;;4995057;28;20022;-73
2021/08/21 10:07:18;;;;;;;3.97;3.00;;;22.80;99.90;;;;;;4995077;28;20370;-72
2021/08/21 10:09:44;;;;;;;4.45;2.72;;;22.70;99.90;;;;;;4995148;28;20023;-73
2021/08/21 10:12:11;;;;;;;3.50;3.20;;;22.90;99.90;;;;;;4994861;28;20022;-73
2021/08/21 10:14:40;;;;;;;4.57;3.20;;;23.00;99.90;;;;;;4994805;28;20030;-73
2021/08/21 10:17:08;;;;;;;7.38;3.30;;;23.10;99.90;;;;;;4994934;28;20118;-73
2021/08/21 10:19:35;;;;;;;4.78;3.17;;;23.00;99.90;;;;;;5010296;28;20018;-73
2021/08/21 10:22:02;;;;;;;3.50;2.97;;;23.10;99.90;;;;;;5009276;28;20026;-73
2021/08/21 10:24:28;;;;;;;4.45;3.00;;;23.00;99.90;;;;;;4994741;28;20034;-73
2021/08/21 10:26:59;;;;;;;3.10;2.80;;;23.00;99.90;;;;;;4995062;28;20033;-73
2021/08/21 10:29:25;;;;;;;3.90;3.20;;;23.20;99.90;;;;;;4993461;28;20488;-73
2021/08/21 10:31:51;;;;;;;4.00;3.00;;;23.20;99.90;;;;;;4994542;28;20044;-73
2021/08/21 10:34:16;;;;;;;3.22;2.90;;;23.20;99.90;;;;;;4994444;28;20026;-73
2021/08/21 10:36:56;;;;;;;3.92;3.15;;;23.50;99.90;;;;;;4994508;28;20022;-73
2021/08/21 10:39:30;;;;;;;5.20;3.15;;;23.70;99.90;;;;;;4994673;28;20022;-74
2021/08/21 10:41:56;;;;;;;3.63;2.70;;;24.30;99.90;;;;;;4993304;28;20026;-73
2021/08/21 10:44:47;;;;;;;4.03;3.15;;;24.40;99.90;;;;;;4989856;28;20030;-73
2021/08/21 10:47:34;;;;;;;4.70;3.00;;;24.10;99.90;;;;;;4994327;28;20034;-74
2021/08/21 10:50:13;;;;;;;4.20;3.03;;;23.90;99.90;;;;;;4994049;28;20034;-74
2021/08/21 10:52:50;;;;;;;2.88;2.60;;;24.30;99.90;;;;;;4987901;28;20049;-74
2021/08/21 10:55:26;;;;;;;3.10;2.58;;;24.80;99.90;;;;;;4993790;28;20018;-74
2021/08/21 10:58:02;;;;;;;3.20;2.90;;;25.10;99.90;;;;;;4994362;28;20037;-74
2021/08/21 11:00:41;;;;;;;;;;;24.90;99.90;;;;;;4994603;28;20037;-74
2021/08/21 11:03:09;;;;;;;4.70;3.00;;;25.00;99.90;;;;;;4994310;28;20280;-74
2021/08/21 11:05:55;;;;;;;4.22;2.97;;;25.10;99.90;;;;;;4987048;28;20019;-74
2021/08/21 11:08:32;;;;;;;2.50;2.28;;;24.80;99.90;;;;;;4994019;28;20022;-74
2021/08/21 11:11:10;;;;;;;3.85;2.55;;;24.20;99.90;;;;;;4992966;28;20401;-74
2021/08/21 11:14:02;;;;;;;3.83;2.58;;;23.90;99.90;;;;;;4993875;28;20101;-73
2021/08/21 11:16:51;;;;;;;2.88;2.47;;;24.10;99.90;;;;;;4990771;28;20022;-73
2021/08/21 11:19:28;;;;;;;2.90;2.47;;;24.50;99.90;;;;;;4990238;28;20022;-74
2021/08/21 11:22:32;;;;;;;3.97;2.65;;;24.90;99.90;;;;;;4992551;28;20030;-73
2021/08/21 11:25:06;;;;;;;3.45;2.85;;;25.20;99.90;;;;;;4981147;28;20110;-73
2021/08/21 11:27:34;;;;;;;4.00;2.65;;;25.10;99.90;;;;;;4971987;28;20555;-73
2021/08/21 11:30:12;;;;;;;2.35;2.00;;;24.80;99.90;;;;;;4983651;28;20034;-73
2021/08/21 11:32:48;;;;;;;2.58;1.95;;;25.00;99.90;;;;;;4994195;28;20030;-74
2021/08/21 11:35:17;;;;;;;;;;;25.20;99.90;;;;;;4994458;28;20030;-74
2021/08/21 11:37:48;;;;;;;5.82;1.92;;;25.00;99.90;;;;;;4993512;28;20372;-74
2021/08/21 11:40:16;;;;;;;2.42;2.10;;;25.70;99.90;;;;;;4992071;28;20027;-74
2021/08/21 11:42:50;;;;;;;2.30;2.10;;;25.80;99.90;;;;;;4998517;28;20024;-74
2021/08/21 11:45:17;;;;;;;2.17;1.98;;;25.50;99.90;;;;;;5006940;28;20022;-73
2021/08/21 11:47:43;;;;;;;3.15;1.80;;;25.70;99.90;;;;;;4998583;28;20030;-73
2021/08/21 11:50:25;;;;;;;2.13;1.88;;;25.70;99.90;;;;;;4999833;28;20038;-74
2021/08/21 11:52:52;;;;;;;2.25;1.98;;;26.00;99.90;;;;;;4993652;28;20022;-74
2021/08/21 11:55:19;;;;;;;2.95;1.80;;;26.10;99.90;;;;;;4992911;28;20031;-74
2021/08/21 11:57:46;;;;;;;2.40;2.20;;;25.70;99.90;;;;;;4992441;28;20127;-74
2021/08/21 12:00:24;;;;;;;2.30;2.10;;;26.10;99.90;;;;;;4992904;28;20022;-73
2021/08/21 12:02:52;;;;;;;2.40;2.20;;;26.10;99.90;;;;;;5003783;28;20388;-74
2021/08/21 12:05:25;;;;;;;2.80;2.47;;;26.30;99.90;;;;;;5012328;28;20038;-74
2021/08/21 12:07:51;;;;;;;2.80;2.50;;;26.50;99.90;;;;;;5012641;28;20065;-74
2021/08/21 12:10:16;;;;;;;3.15;2.38;;;26.30;99.90;;;;;;4992671;28;20101;-73
2021/08/21 12:12:42;;;;;;;2.88;2.47;;;26.60;99.90;;;;;;4992837;28;20512;-73
2021/08/21 12:15:08;;;;;;;2.50;2.30;;;26.40;99.90;;;;;;4998927;28;20022;-74
2021/08/21 12:17:34;;;;;;;3.63;2.50;;;26.40;99.90;;;;;;4988235;28;20037;-75
2021/08/21 12:20:02;;;;;;;4.00;2.72;;;27.10;99.90;;;;;;4991881;28;20022;-74
2021/08/21 12:22:29;;;;;;;5.20;2.50;;;26.80;99.90;;;;;;4989405;28;20485;-74
2021/08/21 12:24:56;;;;;;;5.22;2.70;;;26.70;99.90;;;;;;4992467;28;20417;-73
2021/08/21 12:27:27;;;;;;;4.50;2.97;;;27.10;99.90;;;;;;4992651;28;20080;-74
2021/08/21 12:30:12;;;;;;;4.30;2.75;;;27.50;99.90;;;;;;4992681;28;20108;-74
2021/08/21 12:32:39;;;;;;;3.35;3.00;;;27.30;99.90;;;;;;4992707;28;20030;-74
2021/08/21 12:35:16;;;;;;;3.47;3.08;;;27.30;99.90;;;;;;4992435;28;20037;-74
2021/08/21 12:37:43;;;;;;;4.22;3.45;;;27.10;99.90;;;;;;5007022;28;20121;-74
2021/08/21 12:40:16;;;;;;;5.40;2.88;;;27.50;99.90;;;;;;4991178;28;20030;-74
2021/08/21 12:42:43;;;;;;;4.20;3.08;;;27.40;99.90;;;;;;4992477;28;20026;-74
2021/08/21 12:45:19;;;;;;;4.05;2.80;;;27.70;99.90;;;;;;4992389;28;20053;-74
2021/08/21 12:47:45;;;;;;;4.43;3.00;;;28.10;99.90;;;;;;4999453;28;20026;-74
2021/08/21 12:50:11;;;;;;;3.75;3.25;;;26.90;99.90;;;;;;5011926;28;20088;-74